Time;durP1;ratioP1;P1;durP2;ratioP2;P2;SDS_P1;SDS_P2;PMS_P1;PMS_P2;Temp;Humidity;BMP_temperature;BMP_pressure;BME280_temperature;BME280_humidity;BME280_pressure;Samples;Min_cycle;Max_cycle;Signal;HPM_P1;HPM_P2
2021/07/16 00:00:55;;;;;;;;;;;;;;;26.95;48.66;99062.03;380365;108;1960971;-71
2021/07/16 00:02:00;;;;;;;;;;;;;;;26.82;48.97;99063.04;363310;110;1959988;-71
2021/07/16 00:03:07;;;;;;;;;;;;;;;26.80;48.69;99059.77;361159;111;1959987;-72
2021/07/16 00:04:12;;;;;;;;;;;;;;;26.79;48.84;99063.70;360951;111;1960052;-72
2021/07/16 00:05:17;;;;;;;;;;;;;;;26.76;48.77;99061.59;365853;109;1961070;-72
2021/07/16 00:06:29;;;;;;;;;;;;;;;26.84;48.99;99065.49;396700;103;1959924;-71
2021/07/16 00:07:34;;;;;;;;;;;;;;;26.70;49.13;99069.27;378556;105;1960080;-72
2021/07/16 00:08:46;;;;;;;;;;;;;;;26.81;48.96;99060.61;400648;104;1959848;-72
2021/07/16 00:09:52;;;;;;;;;;;;;;;26.69;49.10;99061.27;380826;105;1959998;-72
2021/07/16 00:11:15;;;;;;;;;;;;;;;26.69;49.06;99069.58;376777;107;1959984;-71
2021/07/16 00:12:21;;;;;;;;;;;;;;;26.66;48.99;99065.50;376954;107;1960005;-72
2021/07/16 00:13:26;;;;;;;;;;;;;;;26.64;49.11;99065.02;376780;107;1960905;-72
2021/07/16 00:14:38;;;;;;;;;;;;;;;26.75;49.02;99066.33;395124;104;1959888;-72
2021/07/16 00:15:43;;;;;;;;;;;;;;;26.63;48.94;99071.70;372511;108;1960087;-71
2021/07/16 00:16:49;;;;;;;;;;;;;;;26.62;49.01;99069.25;372638;108;1960010;-72
2021/07/16 00:18:01;;;;;;;;;;;;;;;26.73;49.15;99067.80;399977;103;1960054;-71
2021/07/16 00:19:06;;;;;;;;;;;;;;;26.61;49.08;99071.21;382467;105;1959974;-72
2021/07/16 00:20:13;;;;;;;;;;;;;;;26.62;49.33;99066.48;338133;105;2700006;-72
2021/07/16 00:21:18;;;;;;;;;;;;;;;26.58;49.53;99063.56;373994;107;1960048;-72
2021/07/16 00:22:24;;;;;;;;;;;;;;;26.57;49.45;99072.19;340197;107;2073954;-72
2021/07/16 00:23:35;;;;;;;;;;;;;;;26.64;49.35;99070.55;400583;104;1960004;-72
2021/07/16 00:24:40;;;;;;;;;;;;;;;26.51;49.36;99072.34;381987;105;1959854;-72
2021/07/16 00:25:46;;;;;;;;;;;;;;;26.51;49.36;99069.58;371333;106;1959897;-71
2021/07/16 00:26:52;;;;;;;;;;;;;;;26.49;49.53;99063.55;378471;106;1960028;-71
2021/07/16 00:28:04;;;;;;;;;;;;;;;26.60;49.63;99074.33;399364;104;1961004;-71
2021/07/16 00:29:09;;;;;;;;;;;;;;;26.44;49.98;99069.24;382502;105;1959999;-72
2021/07/16 00:30:14;;;;;;;;;;;;;;;26.45;49.98;99070.86;380021;105;1960888;-72
2021/07/16 00:31:26;;;;;;;;;;;;;;;26.56;49.85;99067.80;397137;104;1959992;-71
2021/07/16 00:32:32;;;;;;;;;;;;;;;26.43;49.79;99075.09;380101;105;1959946;-71
2021/07/16 00:33:37;;;;;;;;;;;;;;;25.97;50.20;98994.31;381039;105;1960034;-72
2021/07/16 00:34:43;;;;;;;;;;;;;;;26.42;50.06;99071.52;381059;105;1960057;-72
2021/07/16 00:35:48;;;;;;;;;;;;;;;26.42;49.92;99065.17;387258;103;1959886;-72
2021/07/16 00:36:55;;;;;;;;;;;;;;;26.43;50.04;99066.78;376787;103;2866035;-71
2021/07/16 00:38:00;;;;;;;;;;;;;;;26.43;49.92;99072.33;341456;103;2750886;-71
2021/07/16 00:39:06;;;;;;;;;;;;;;;26.43;50.08;99067.59;311772;103;2405907;-72
2021/07/16 00:40:13;;;;;;;;;;;;;;;26.44;50.11;99066.47;386007;103;1959946;-72
2021/07/16 00:41:17;;;;;;;;;;;;;;;26.45;50.01;99067.28;386609;103;1960070;-70
2021/07/16 00:42:22;;;;;;;;;;;;;;;26.45;50.22;99068.09;379642;103;1960020;-71
2021/07/16 00:43:34;;;;;;;;;;;;;;;26.57;50.09;99070.25;398330;104;1960877;-71
2021/07/16 00:44:39;;;;;;;;;;;;;;;26.46;50.10;99077.20;377797;106;1960022;-72
2021/07/16 00:45:44;;;;;;;;;;;;;;;26.46;49.98;99071.67;372923;107;1960873;-71
2021/07/16 00:46:56;;;;;;;;;;;;;;;26.57;49.67;99067.48;390861;106;1960957;-69
2021/07/16 00:48:01;;;;;;;;;;;;;;;26.46;49.60;99072.51;372705;107;1960976;-72
2021/07/16 00:49:13;;;;;;;;;;;;;;;26.56;49.52;99065.03;396532;104;1962049;-70
2021/07/16 00:50:20;;;;;;;;;;;;;;;26.44;49.40;99069.24;379747;105;1960366;-70
2021/07/16 00:51:43;;;;;;;;;;;;;;;26.44;49.41;99063.70;377161;106;1959974;-72
2021/07/16 00:52:48;;;;;;;;;;;;;;;26.43;49.44;99066.78;379494;105;1959889;-71
2021/07/16 00:54:00;;;;;;;;;;;;;;;26.53;49.45;99063.72;397443;104;1961940;-70
2021/07/16 00:55:06;;;;;;;;;;;;;;;26.40;49.55;99065.48;373837;106;1959972;-72
2021/07/16 00:56:12;;;;;;;;;;;;;;;26.39;49.47;99063.05;371148;108;1961918;-74
2021/07/16 00:57:24;;;;;;;;;;;;;;;26.48;49.44;99063.85;391992;104;1959945;-71
2021/07/16 00:58:29;;;;;;;;;;;;;;;26.37;49.35;99065.33;341326;106;2098961;-71
2021/07/16 00:59:42;;;;;;;;;;;;;;;26.50;49.22;99067.93;395457;104;1961048;-71
2021/07/16 01:00:47;;;;;;;;;;;;;;;26.40;49.05;99071.02;376045;107;1960063;-71
2021/07/16 01:02:12;;;;;;;;;;;;;;;26.39;48.55;99060.28;302252;107;2418964;-71
2021/07/16 01:03:24;;;;;;;;;;;;;;;26.50;48.52;99067.93;391862;106;1959895;-72
2021/07/16 01:04:29;;;;;;;;;;;;;;;26.40;48.53;99072.98;375928;107;1960032;-73
2021/07/16 01:05:35;;;;;;;;;;;;;;;26.38;48.80;99064.98;371290;109;1960892;-72
2021/07/16 01:06:40;;;;;;;;;;;;;;;26.38;48.59;99064.17;371021;109;1960027;-70
2021/07/16 01:07:46;;;;;;;;;;;;;;;26.36;48.53;99060.91;371791;109;1960036;-70
2021/07/16 01:08:51;;;;;;;;;;;;;;;26.36;48.52;99058.98;371786;109;1959877;-72
2021/07/16 01:10:05;;;;;;;;;;;;;;;26.47;48.54;99060.28;345222;106;2744009;-73
2021/07/16 01:11:10;;;;;;;;;;;;;;;26.35;48.62;99064.83;367757;109;1959884;-72
2021/07/16 01:12:15;;;;;;;;;;;;;;;26.32;48.53;99058.80;346976;109;1959991;-71
2021/07/16 01:13:27;;;;;;;;;;;;;;;26.42;48.56;99060.44;397673;104;1960039;-71
2021/07/16 01:14:32;;;;;;;;;;;;;;;26.32;48.52;99055.22;377962;106;1959837;-71
2021/07/16 01:15:37;;;;;;;;;;;;;;;26.32;48.53;99055.22;374120;108;1959930;-72
2021/07/16 01:16:49;;;;;;;;;;;;;;;26.41;48.56;99055.22;396629;104;1959986;-72
2021/07/16 01:17:54;;;;;;;;;;;;;;;26.26;48.80;99059.30;379162;105;1960024;-70
2021/07/16 01:19:00;;;;;;;;;;;;;;;26.26;48.70;99060.11;378539;106;1960010;-71
2021/07/16 01:20:07;;;;;;;;;;;;;;;26.25;48.75;99057.66;379307;105;1960053;-71
2021/07/16 01:21:20;;;;;;;;;;;;;;;26.38;48.79;99055.87;391880;104;1960012;-71
2021/07/16 01:22:30;;;;;;;;;;;;;;;26.24;48.84;99062.38;379424;105;1960954;-71
2021/07/16 01:23:35;;;;;;;;;;;;;;;26.25;48.89;99060.42;378906;106;1959866;-71
2021/07/16 01:24:40;;;;;;;;;;;;;;;26.24;48.96;99056.84;354504;105;1960026;-72
2021/07/16 01:25:52;;;;;;;;;;;;;;;26.32;48.96;99056.03;397376;104;1959943;-71
2021/07/16 01:26:57;;;;;;;;;;;;;;;26.23;48.96;99058.00;379929;106;1959908;-71
2021/07/16 01:28:03;;;;;;;;;;;;;;;26.22;49.17;99053.58;378636;105;1961951;-72
2021/07/16 01:29:11;;;;;;;;;;;;;;;26.13;49.09;99043.66;378186;105;1959940;-72
2021/07/16 01:30:18;;;;;;;;;;;;;;;26.19;49.06;99053.42;363508;105;2875028;-70
2021/07/16 01:31:30;;;;;;;;;;;;;;;26.27;49.20;99047.88;395125;104;1959991;-71
2021/07/16 01:32:37;;;;;;;;;;;;;;;26.17;49.24;99053.77;378273;107;1959878;-70
2021/07/16 01:33:49;;;;;;;;;;;;;;;26.25;49.36;99047.42;330326;106;2450996;-69
2021/07/16 01:34:54;;;;;;;;;;;;;;;26.12;49.62;99053.08;298874;107;2437003;-70
2021/07/16 01:36:19;;;;;;;;;;;;;;;26.10;49.56;99045.93;374959;107;1959998;-70
2021/07/16 01:37:24;;;;;;;;;;;;;;;26.08;49.62;99039.90;374217;107;1959964;-72
2021/07/16 01:38:36;;;;;;;;;;;;;;;26.20;49.54;99044.00;385019;104;1959951;-71
2021/07/16 01:39:43;;;;;;;;;;;;;;;26.07;49.76;99038.28;377325;106;1960017;-70
2021/07/16 01:40:49;;;;;;;;;;;;;;;26.06;49.60;99035.82;374967;108;1959869;-72
2021/07/16 01:42:02;;;;;;;;;;;;;;;26.16;49.84;99029.16;400610;104;1959877;-71
2021/07/16 01:43:09;;;;;;;;;;;;;;;26.02;49.67;99038.44;357960;105;2815998;-71
2021/07/16 01:44:14;;;;;;;;;;;;;;;26.01;49.62;99028.52;383951;105;1959983;-72
2021/07/16 01:45:27;;;;;;;;;;;;;;;26.02;49.61;99026.56;378840;105;1961986;-71
2021/07/16 01:46:59;;;;;;;;;;;;;;;26.12;49.87;99025.41;362960;103;2627961;-71
2021/07/16 01:48:10;;;;;;;;;;;;;;;25.99;49.68;99027.21;300860;106;2437000;-71
2021/07/16 01:49:22;;;;;;;;;;;;;;;26.10;49.73;99020.21;399983;104;1959945;-71
2021/07/16 01:50:28;;;;;;;;;;;;;;;25.97;49.71;99015.64;382126;105;1962034;-72
2021/07/16 01:51:33;;;;;;;;;;;;;;;25.96;49.95;99020.37;382355;105;1959933;-72
2021/07/16 01:52:46;;;;;;;;;;;;;;;26.08;49.94;99016.95;397357;104;1959858;-72
2021/07/16 01:53:52;;;;;;;;;;;;;;;25.94;50.13;99016.30;378903;107;1959957;-71
2021/07/16 01:54:58;;;;;;;;;;;;;;;25.93;50.15;99015.45;336407;107;2839069;-70
2021/07/16 01:56:03;;;;;;;;;;;;;;;25.92;50.23;99021.33;321436;107;2522918;-72
2021/07/16 01:57:09;;;;;;;;;;;;;;;25.92;50.12;99022.14;327315;107;2209002;-72
2021/07/16 01:58:15;;;;;;;;;;;;;;;25.91;50.04;99011.38;303739;109;2348904;-72
2021/07/16 01:59:28;;;;;;;;;;;;;;;26.00;50.08;99012.22;397001;104;1960009;-72
2021/07/16 02:00:36;;;;;;;;;;;;;;;25.87;50.19;99000.16;370596;108;1959934;-73
2021/07/16 02:01:48;;;;;;;;;;;;;;;25.95;50.25;99007.65;397836;103;1959897;-73
2021/07/16 02:02:54;;;;;;;;;;;;;;;25.85;50.06;99000.50;378343;107;1960034;-73
2021/07/16 02:04:17;;;;;;;;;;;;;;;25.83;50.14;99011.03;379364;107;1960010;-71
2021/07/16 02:05:23;;;;;;;;;;;;;;;25.83;50.08;99004.70;376065;106;1960000;-72
2021/07/16 02:06:35;;;;;;;;;;;;;;;25.92;50.17;99004.73;395920;103;1959912;-72
2021/07/16 02:07:39;;;;;;;;;;;;;;;25.81;50.15;99009.73;377580;107;1959955;-73
2021/07/16 02:08:45;;;;;;;;;;;;;;;25.78;50.21;99004.84;378508;106;1961017;-71
2021/07/16 02:09:50;;;;;;;;;;;;;;;25.81;50.27;99007.77;375423;106;1959990;-72
2021/07/16 02:11:02;;;;;;;;;;;;;;;25.91;50.17;99011.38;397094;104;1961016;-72
2021/07/16 02:12:07;;;;;;;;;;;;;;;25.78;50.30;99011.19;377399;106;1960070;-71
2021/07/16 02:13:19;;;;;;;;;;;;;;;25.87;50.20;99013.99;406302;101;1960007;-72
2021/07/16 02:14:25;;;;;;;;;;;;;;;25.75;50.43;99011.00;387443;104;1959887;-71
2021/07/16 02:15:49;;;;;;;;;;;;;;;25.74;50.49;99012.95;366946;109;1960041;-71
2021/07/16 02:16:55;;;;;;;;;;;;;;;25.74;50.43;99006.62;367578;109;1960026;-70
2021/07/16 02:18:07;;;;;;;;;;;;;;;25.85;50.35;99011.56;367002;101;2631955;-71
2021/07/16 02:19:12;;;;;;;;;;;;;;;25.75;50.35;99014.61;325266;103;2283933;-70
2021/07/16 02:20:25;;;;;;;;;;;;;;;25.74;50.38;99006.62;312051;105;2374008;-72
2021/07/16 02:21:37;;;;;;;;;;;;;;;25.85;50.48;99003.27;397429;104;1960041;-71
2021/07/16 02:22:43;;;;;;;;;;;;;;;25.72;50.92;99004.19;378902;106;1960052;-71
2021/07/16 02:23:49;;;;;;;;;;;;;;;25.70;50.65;99005.65;378786;106;1959935;-70
2021/07/16 02:24:54;;;;;;;;;;;;;;;25.69;50.58;99002.05;366402;106;2958019;-70
2021/07/16 02:26:05;;;;;;;;;;;;;;;25.80;50.67;99000.63;384592;104;1959966;-70
2021/07/16 02:27:11;;;;;;;;;;;;;;;25.66;50.87;99005.46;322698;105;2281002;-72
2021/07/16 02:28:17;;;;;;;;;;;;;;;25.64;50.80;99003.03;317286;105;2499008;-71
2021/07/16 02:29:22;;;;;;;;;;;;;;;25.66;50.60;98999.93;383563;105;1961017;-70
2021/07/16 02:30:28;;;;;;;;;;;;;;;25.63;50.72;98995.85;376983;107;1959991;-70
2021/07/16 02:31:41;;;;;;;;;;;;;;;25.73;51.23;99003.04;396544;103;1960064;-71
2021/07/16 02:32:47;;;;;;;;;;;;;;;25.59;51.16;98994.88;379679;106;1959844;-70
2021/07/16 02:33:52;;;;;;;;;;;;;;;25.59;50.77;98999.58;369690;106;2938056;-71
2021/07/16 02:34:58;;;;;;;;;;;;;;;25.57;51.03;98999.92;378547;106;1960105;-71
2021/07/16 02:36:10;;;;;;;;;;;;;;;25.65;51.17;98999.12;388177;106;1961952;-70
2021/07/16 02:37:15;;;;;;;;;;;;;;;25.54;51.26;99002.52;371635;108;1960032;-71
2021/07/16 02:38:22;;;;;;;;;;;;;;;25.55;51.03;99002.19;367870;108;1961025;-73
2021/07/16 02:39:33;;;;;;;;;;;;;;;25.65;50.92;98999.12;396392;104;1960065;-71
2021/07/16 02:40:38;;;;;;;;;;;;;;;25.56;51.23;99005.75;379196;106;1960005;-72
2021/07/16 02:41:43;;;;;;;;;;;;;;;25.56;51.37;99000.23;378078;106;1959909;-71
2021/07/16 02:42:48;;;;;;;;;;;;;;;25.54;51.22;98992.27;379626;105;1959955;-71
2021/07/16 02:44:00;;;;;;;;;;;;;;;25.65;50.87;98996.35;397475;104;1960061;-71
2021/07/16 02:45:06;;;;;;;;;;;;;;;25.55;50.96;98993.08;378998;106;1959990;-71
2021/07/16 02:46:18;;;;;;;;;;;;;;;25.67;51.08;98998.81;358820;103;2138030;-72
2021/07/16 02:47:24;;;;;;;;;;;;;;;25.57;50.87;99005.45;309154;106;2364969;-72
2021/07/16 02:48:29;;;;;;;;;;;;;;;25.59;50.61;98997.65;310842;107;2343020;-71
2021/07/16 02:49:35;;;;;;;;;;;;;;;25.59;50.65;98994.05;302338;105;2409015;-70
2021/07/16 02:50:41;;;;;;;;;;;;;;;25.60;50.75;98998.46;347619;108;1959903;-71
2021/07/16 02:52:13;;;;;;;;;;;;;;;25.73;50.56;98994.74;401133;103;1960007;-71
2021/07/16 02:53:20;;;;;;;;;;;;;;;25.63;50.37;99003.34;381042;105;1960074;-70
2021/07/16 02:54:24;;;;;;;;;;;;;;;25.64;50.30;98997.50;381190;105;1959953;-71
2021/07/16 02:55:29;;;;;;;;;;;;;;;25.63;50.48;98997.81;376979;107;1960924;-71
2021/07/16 02:56:41;;;;;;;;;;;;;;;25.77;50.27;98998.47;396331;104;1960021;-72
2021/07/16 02:57:48;;;;;;;;;;;;;;;25.68;50.36;99008.73;377162;106;1960028;-71
2021/07/16 02:58:53;;;;;;;;;;;;;;;25.71;50.32;99004.50;307976;107;2448934;-71
2021/07/16 02:59:59;;;;;;;;;;;;;;;25.71;50.42;99002.54;302047;107;2407075;-70
2021/07/16 03:01:04;;;;;;;;;;;;;;;25.72;50.25;99000.59;335090;107;2079974;-71
2021/07/16 03:02:16;;;;;;;;;;;;;;;25.83;50.36;98996.39;398748;104;1959883;-71
2021/07/16 03:03:22;;;;;;;;;;;;;;;25.73;50.37;99002.23;378146;107;1959926;-70
2021/07/16 03:04:27;;;;;;;;;;;;;;;25.75;50.35;98999.94;378425;107;1961045;-72
2021/07/16 03:05:37;;;;;;;;;;;;;;;25.76;50.40;99002.39;377733;107;1960067;-72
2021/07/16 03:06:43;;;;;;;;;;;;;;;25.75;50.23;98998.01;377965;107;1961003;-71
2021/07/16 03:07:59;;;;;;;;;;;;;;;25.87;50.41;98998.20;400068;104;1959925;-72
2021/07/16 03:09:04;;;;;;;;;;;;;;;25.76;50.26;98999.62;381867;105;1960936;-71
2021/07/16 03:10:10;;;;;;;;;;;;;;;25.79;50.29;99001.73;380170;105;1960860;-72
2021/07/16 03:11:22;;;;;;;;;;;;;;;25.91;50.35;99001.16;381569;108;1959961;-72
2021/07/16 03:12:28;;;;;;;;;;;;;;;25.81;50.30;99002.23;356230;110;2812989;-71
2021/07/16 03:13:33;;;;;;;;;;;;;;;25.82;50.21;99005.81;360214;112;1961038;-71
2021/07/16 03:14:39;;;;;;;;;;;;;;;25.82;50.41;99003.86;354070;114;1959901;-70
2021/07/16 03:15:44;;;;;;;;;;;;;;;25.83;50.28;99011.03;357618;112;1959991;-70
2021/07/16 03:16:50;;;;;;;;;;;;;;;25.84;50.34;99015.45;300073;110;2343075;-73
2021/07/16 03:17:56;;;;;;;;;;;;;;;25.87;50.48;99016.76;295860;112;2377016;-71
2021/07/16 03:19:02;;;;;;;;;;;;;;;25.88;50.34;99018.41;311476;111;2230004;-69
2021/07/16 03:20:12;;;;;;;;;;;;;;;25.88;50.38;99018.41;361940;112;1959989;-71
2021/07/16 03:21:24;;;;;;;;;;;;;;;26.00;50.53;99015.80;396674;104;1959888;-71
2021/07/16 03:22:29;;;;;;;;;;;;;;;25.89;50.36;99022.80;379333;105;1959975;-71
2021/07/16 03:23:33;;;;;;;;;;;;;;;25.89;50.39;99020.02;377851;105;1959908;-72
2021/07/16 03:24:39;;;;;;;;;;;;;;;25.88;50.61;99027.52;346112;105;2011011;-71
2021/07/16 03:25:44;;;;;;;;;;;;;;;25.88;50.59;99027.52;352745;107;1959988;-71
2021/07/16 03:26:49;;;;;;;;;;;;;;;25.91;50.54;99022.45;348756;109;1959960;-69
2021/07/16 03:27:55;;;;;;;;;;;;;;;25.91;50.64;99027.98;304078;107;2336977;-70
2021/07/16 03:29:00;;;;;;;;;;;;;;;25.91;50.69;99020.52;339341;108;1996988;-70
2021/07/16 03:30:07;;;;;;;;;;;;;;;25.92;50.57;99024.09;294007;108;2432871;-70
2021/07/16 03:31:12;;;;;;;;;;;;;;;25.92;50.58;99029.63;369510;107;1959964;-71
2021/07/16 03:32:24;;;;;;;;;;;;;;;25.99;50.73;99019.72;396673;104;1960002;-71
2021/07/16 03:33:30;;;;;;;;;;;;;;;25.91;50.79;99034.36;378511;107;1961076;-69
2021/07/16 03:34:34;;;;;;;;;;;;;;;25.92;50.72;99035.16;379697;106;1960037;-71
2021/07/16 03:35:39;;;;;;;;;;;;;;;25.92;50.88;99035.97;373625;107;1960120;-71
2021/07/16 03:36:51;;;;;;;;;;;;;;;26.05;50.67;99035.02;396762;104;1960881;-71
2021/07/16 03:37:56;;;;;;;;;;;;;;;25.92;50.94;99040.70;378999;106;1959944;-71
2021/07/16 03:39:08;;;;;;;;;;;;;;;26.06;50.70;99044.12;396480;104;1959885;-71
2021/07/16 03:40:15;;;;;;;;;;;;;;;25.97;50.79;99044.12;373845;106;1960008;-71
2021/07/16 03:41:39;;;;;;;;;;;;;;;26.00;50.66;99045.43;372149;107;1960241;-71
2021/07/16 03:42:45;;;;;;;;;;;;;;;26.01;50.64;99042.35;370730;107;1959976;-70
2021/07/16 03:43:50;;;;;;;;;;;;;;;26.02;50.69;99045.93;370976;107;1960954;-71
2021/07/16 03:44:56;;;;;;;;;;;;;;;26.04;50.50;99046.43;372335;108;1960196;-71
2021/07/16 03:46:01;;;;;;;;;;;;;;;26.06;50.48;99049.66;372403;107;1960010;-71
2021/07/16 03:47:10;;;;;;;;;;;;;;;26.06;50.73;99053.23;372116;107;1960004;-71
2021/07/16 03:48:15;;;;;;;;;;;;;;;26.09;51.04;99057.31;358230;111;1959919;-72
2021/07/16 03:49:20;;;;;;;;;;;;;;;26.09;50.79;99052.62;357832;112;1960088;-70
2021/07/16 03:50:33;;;;;;;;;;;;;;;26.27;50.58;99049.84;396531;104;1959917;-73
2021/07/16 03:51:38;;;;;;;;;;;;;;;26.20;50.16;99055.07;379226;105;1959960;-72
2021/07/16 03:52:44;;;;;;;;;;;;;;;26.23;50.15;99058.00;380100;105;1959918;-72
2021/07/16 03:53:56;;;;;;;;;;;;;;;26.35;50.45;99056.52;397856;104;1960122;-72
2021/07/16 03:55:05;;;;;;;;;;;;;;;26.27;50.22;99058.15;369336;105;1959851;-73
2021/07/16 03:56:15;;;;;;;;;;;;;;;26.40;50.08;99057.17;388970;106;1959895;-71
2021/07/16 03:57:21;;;;;;;;;;;;;;;26.30;49.79;99058.33;370687;107;1960075;-72
2021/07/16 03:58:46;;;;;;;;;;;;;;;26.31;50.04;99059.14;370960;108;1960070;-72
2021/07/16 03:59:51;;;;;;;;;;;;;;;26.31;50.39;99048.87;370466;108;1959937;-73
2021/07/16 04:01:03;;;;;;;;;;;;;;;26.44;50.05;99052.62;356417;104;2666051;-71
2021/07/16 04:02:09;;;;;;;;;;;;;;;26.35;49.80;99057.33;322762;105;2246951;-72
2021/07/16 04:03:17;;;;;;;;;;;;;;;26.36;50.04;99056.22;348522;107;2012942;-72
2021/07/16 04:04:22;;;;;;;;;;;;;;;26.39;49.94;99055.55;380234;105;1960992;-72
2021/07/16 04:05:27;;;;;;;;;;;;;;;26.43;49.85;99059.28;374037;107;1960051;-72
2021/07/16 04:06:33;;;;;;;;;;;;;;;26.46;49.35;99058.66;374418;107;1960078;-71
2021/07/16 04:07:45;;;;;;;;;;;;;;;26.44;49.46;99058.16;368797;109;1960088;-69
2021/07/16 04:09:09;;;;;;;;;;;;;;;26.49;49.33;99054.42;396899;104;1959974;-72
2021/07/16 04:09:59;;;;;;;;;;;;;;;26.45;49.46;99053.44;377870;105;1960008;-71
2021/07/16 04:11:05;;;;;;;;;;;;;;;26.46;49.29;99053.12;381854;105;1960021;-70
2021/07/16 04:13:31;;;;;;;;;;;;;;;26.61;49.25;99062.09;398772;104;1960042;-72
2021/07/16 04:14:55;;;;;;;;;;;;;;;26.50;49.44;99062.39;377586;107;1959982;-71
2021/07/16 04:16:01;;;;;;;;;;;;;;;26.49;49.58;99058.00;377432;105;1959983;-70
2021/07/16 04:17:13;;;;;;;;;;;;;;;26.63;49.44;99062.58;397909;103;1959982;-73
2021/07/16 04:18:19;;;;;;;;;;;;;;;26.49;49.61;99060.77;377538;107;1959912;-73
2021/07/16 04:19:31;;;;;;;;;;;;;;;26.63;49.55;99057.86;380144;104;1959991;-71
2021/07/16 04:20:37;;;;;;;;;;;;;;;26.53;49.58;99066.49;365875;107;1960040;-72
2021/07/16 04:22:03;;;;;;;;;;;;;;;26.56;49.31;99059.48;340802;107;2811945;-72
2021/07/16 04:23:08;;;;;;;;;;;;;;;26.60;49.32;99060.47;373241;107;1959927;-73
2021/07/16 04:24:20;;;;;;;;;;;;;;;26.72;49.25;99052.29;397992;104;1960015;-72
2021/07/16 04:25:25;;;;;;;;;;;;;;;26.65;49.33;99054.77;374767;107;1960071;-72
2021/07/16 04:26:33;;;;;;;;;;;;;;;26.69;49.63;99053.77;373459;107;1961002;-72
2021/07/16 04:27:46;;;;;;;;;;;;;;;26.84;49.25;99054.41;395701;104;1961886;-73
2021/07/16 04:28:50;;;;;;;;;;;;;;;26.74;49.38;99056.36;371062;109;1959951;-72
2021/07/16 04:29:55;;;;;;;;;;;;;;;26.82;49.41;99053.91;361999;110;1960114;-73
2021/07/16 04:31:04;;;;;;;;;;;;;;;26.85;48.91;99048.52;372996;107;1960028;-74
2021/07/16 04:32:10;;;;;;;;;;;;;;;26.91;49.06;99049.16;366522;110;1959936;-72
2021/07/16 04:33:22;;;;;;;;;;;;;;;27.07;48.97;99050.28;356818;104;2147995;-71
2021/07/16 04:34:31;;;;;;;;;;;;;;;26.98;48.87;99053.05;314610;107;2316032;-72
2021/07/16 04:35:50;;;;;;;;;;;;;;;27.15;48.89;99048.59;397158;104;1959756;-71
2021/07/16 04:36:55;;;;;;;;;;;;;;;27.08;49.05;99053.86;379560;106;1960079;-72
2021/07/16 04:38:00;;;;;;;;;;;;;;;27.09;48.92;99045.19;372747;108;1960994;-71
2021/07/16 04:39:05;;;;;;;;;;;;;;;27.08;48.75;99037.22;363523;111;1959992;-72
2021/07/16 04:40:12;;;;;;;;;;;;;;;27.15;48.82;99051.37;362432;110;1960953;-72
2021/07/16 04:41:17;;;;;;;;;;;;;;;27.12;48.84;99055.62;357440;112;1959901;-72
2021/07/16 04:42:29;;;;;;;;;;;;;;;27.23;48.82;99053.36;395780;104;1959996;-72
2021/07/16 04:43:35;;;;;;;;;;;;;;;27.11;48.94;99053.19;379271;106;1959996;-73
2021/07/16 04:44:40;;;;;;;;;;;;;;;27.10;48.79;99054.34;371613;109;1960069;-71
2021/07/16 04:45:46;;;;;;;;;;;;;;;27.11;48.48;99055.97;372286;106;1960029;-72
2021/07/16 04:46:53;;;;;;;;;;;;;;;27.12;48.38;99055.62;341134;106;2643924;-72
2021/07/16 04:47:58;;;;;;;;;;;;;;;27.13;48.49;99057.27;311415;107;2346065;-71
2021/07/16 04:49:04;;;;;;;;;;;;;;;27.16;48.46;99056.59;327084;106;2220977;-72
2021/07/16 04:50:09;;;;;;;;;;;;;;;27.20;48.40;99053.99;327372;107;2206030;-72
2021/07/16 04:51:24;;;;;;;;;;;;;;;27.24;48.23;99052.20;356479;106;1960060;-73
2021/07/16 04:52:30;;;;;;;;;;;;;;;27.30;48.09;99066.69;339430;107;2105988;-73
2021/07/16 04:53:35;;;;;;;;;;;;;;;27.35;47.82;99064.55;314429;106;2491924;-72
2021/07/16 04:54:41;;;;;;;;;;;;;;;27.46;47.75;99067.77;312444;106;2517072;-73
2021/07/16 04:55:46;;;;;;;;;;;;;;;27.54;47.30;99069.69;307642;106;2398015;-72
2021/07/16 04:56:58;;;;;;;;;;;;;;;27.76;47.31;99068.61;397657;103;1959919;-72
2021/07/16 04:58:03;;;;;;;;;;;;;;;27.69;47.23;99059.99;378116;105;1960014;-71
2021/07/16 04:59:08;;;;;;;;;;;;;;;27.76;47.07;99062.22;379237;105;1959975;-72
2021/07/16 05:00:15;;;;;;;;;;;;;;;27.77;47.19;99061.09;374978;105;1960056;-72
2021/07/16 05:01:23;;;;;;;;;;;;;;;27.80;47.28;99060.42;373705;109;1959967;-73
2021/07/16 05:02:28;;;;;;;;;;;;;;;27.86;47.06;99064.66;365885;107;2826002;-73
2021/07/16 05:03:34;;;;;;;;;;;;;;;27.89;47.06;99058.45;373506;107;1962011;-72
2021/07/16 05:04:46;;;;;;;;;;;;;;;28.04;46.73;99055.06;396171;103;1959946;-73
2021/07/16 05:05:51;;;;;;;;;;;;;;;27.98;46.71;99058.39;363889;108;1960969;-72
2021/07/16 05:07:14;;;;;;;;;;;;;;;28.20;46.55;99055.27;400471;103;1961081;-73
2021/07/16 05:08:19;;;;;;;;;;;;;;;28.10;46.13;99058.45;376795;107;1959990;-73
2021/07/16 05:09:43;;;;;;;;;;;;;;;28.12;46.34;99061.70;355046;106;1960850;-72
2021/07/16 05:10:48;;;;;;;;;;;;;;;28.18;46.13;99063.16;345578;106;2035770;-72
2021/07/16 05:12:01;;;;;;;;;;;;;;;28.33;46.01;99061.72;389661;106;1960941;-71
2021/07/16 05:13:06;;;;;;;;;;;;;;;28.23;46.09;99067.67;369195;108;1961026;-73
2021/07/16 05:14:11;;;;;;;;;;;;;;;28.25;46.35;99063.41;369467;107;1959940;-72
2021/07/16 05:15:19;;;;;;;;;;;;;;;28.29;45.85;99063.56;367357;109;1960065;-71
2021/07/16 05:16:31;;;;;;;;;;;;;;;28.42;45.75;99065.25;386834;104;1960957;-72
2021/07/16 05:17:36;;;;;;;;;;;;;;;28.35;45.74;99072.50;337072;104;2216996;-72
2021/07/16 05:18:42;;;;;;;;;;;;;;;28.38;45.67;99074.59;308881;105;2451894;-72
2021/07/16 05:19:54;;;;;;;;;;;;;;;28.50;45.94;99066.36;396239;104;1960049;-72
2021/07/16 05:21:00;;;;;;;;;;;;;;;28.43;45.86;99072.45;376261;107;1960992;-72
2021/07/16 05:22:12;;;;;;;;;;;;;;;28.67;45.77;99065.39;399197;104;1959938;-73
2021/07/16 05:23:18;;;;;;;;;;;;;;;28.66;45.33;99063.77;376653;106;1961023;-72
2021/07/16 05:24:41;;;;;;;;;;;;;;;28.68;45.45;99070.59;375839;106;1960997;-74
2021/07/16 05:25:46;;;;;;;;;;;;;;;28.66;44.59;99064.58;373938;107;1959861;-72
2021/07/16 05:26:52;;;;;;;;;;;;;;;28.62;44.89;99063.63;373960;107;1960008;-72
2021/07/16 05:28:04;;;;;;;;;;;;;;;28.69;44.99;99065.86;400668;103;1959985;-72
2021/07/16 05:29:09;;;;;;;;;;;;;;;28.56;45.00;99072.52;384242;105;1960043;-72
2021/07/16 05:30:21;;;;;;;;;;;;;;;28.68;45.05;99065.03;373124;109;1960041;-72
2021/07/16 05:31:27;;;;;;;;;;;;;;;28.58;45.31;99065.47;355636;112;1960045;-72
2021/07/16 05:32:49;;;;;;;;;;;;;;;28.65;45.21;99062.13;361025;112;1960989;-72
2021/07/16 05:33:54;;;;;;;;;;;;;;;28.73;45.10;99065.98;361018;112;1960845;-72
2021/07/16 05:35:02;;;;;;;;;;;;;;;28.75;45.08;99061.70;349542;113;1960024;-72
2021/07/16 05:36:14;;;;;;;;;;;;;;;28.84;44.93;99064.39;396060;104;1959978;-73
2021/07/16 05:37:19;;;;;;;;;;;;;;;28.73;45.14;99060.42;376764;107;1960818;-72
2021/07/16 05:38:25;;;;;;;;;;;;;;;28.76;45.30;99065.30;376274;107;1959958;-74
2021/07/16 05:39:30;;;;;;;;;;;;;;;28.81;45.18;99065.89;367492;105;2908457;-72
2021/07/16 05:40:36;;;;;;;;;;;;;;;28.87;45.14;99061.77;372642;107;1959981;-73
2021/07/16 05:41:41;;;;;;;;;;;;;;;28.98;44.76;99061.30;364484;107;2939934;-72
2021/07/16 05:42:47;;;;;;;;;;;;;;;29.00;44.75;99068.14;374821;108;1959991;-73
2021/07/16 05:43:52;;;;;;;;;;;;;;;29.03;44.76;99070.27;373667;108;1960007;-73
2021/07/16 05:44:58;;;;;;;;;;;;;;;29.04;44.62;99063.56;373658;107;1960063;-74
2021/07/16 05:46:10;;;;;;;;;;;;;;;29.13;44.53;99060.68;397376;104;1960023;-73
2021/07/16 05:47:15;;;;;;;;;;;;;;;29.00;44.76;99067.34;375440;107;1960992;-71
2021/07/16 05:48:28;;;;;;;;;;;;;;;29.10;44.90;99067.74;390381;105;1959961;-75